Terminal Aerodrome Forecast
Issued by NWS

Home | Current Version | Previous Version | Text Only | Print | Product List | Glossary On
Versions: 1 2 3 4 5 6 7 8 9 10 11 12 13 14 15 16 17 18 19 20 21 22
000
FTUS41 KPBZ 270100 AAA
TAFAGC
TAF AMD
KAGC 270157Z 2702/2724 32008KT 5SM -SHSN BKN015 OVC035
     FM270800 32006KT P6SM VCSH OVC015
     FM271800 31010KT P6SM BKN015=

USA.gov is the U.S. government's official web portal to all federal, state and local government web resources and services.